createdAt,value
2023-01-29T00:00:30.545Z,1.6
2023-01-29T00:01:46.834Z,1.7
2023-01-29T00:03:03.124Z,1.5
2023-01-29T00:04:19.421Z,1.5
2023-01-29T00:05:34.743Z,1.4
2023-01-29T00:06:51.025Z,1.4
2023-01-29T00:08:07.319Z,1.5
2023-01-29T00:09:23.606Z,1.2
2023-01-29T00:10:39.911Z,1.5
2023-01-29T00:11:56.193Z,1.4
2023-01-29T00:13:11.509Z,1.3
2023-01-29T00:14:27.816Z,1.4
2023-01-29T00:15:44.106Z,1.3
2023-01-29T00:17:00.402Z,1.4
2023-01-29T00:18:16.689Z,1
2023-01-29T00:19:32.985Z,0.8
2023-01-29T00:20:49.276Z,1
2023-01-29T00:22:05.569Z,1.2
2023-01-29T00:23:21.863Z,1.1
2023-01-29T00:24:38.154Z,1.3
2023-01-29T00:25:54.449Z,1
2023-01-29T00:27:10.747Z,1.1
2023-01-29T00:28:27.045Z,1.3
2023-01-29T00:29:42.359Z,1
2023-01-29T00:30:58.644Z,1.1
2023-01-29T00:32:14.946Z,1.1
2023-01-29T00:33:31.237Z,0.9
2023-01-29T00:34:47.520Z,1.1
2023-01-29T00:36:03.819Z,1.2
2023-01-29T00:37:20.100Z,1.2
2023-01-29T00:38:36.398Z,1.1
2023-01-29T00:39:52.688Z,1.2
2023-01-29T00:41:08.995Z,1.1
2023-01-29T00:42:25.279Z,1.1
2023-01-29T00:43:41.580Z,1.4
2023-01-29T00:44:57.882Z,1.3
2023-01-29T00:46:13.188Z,1.2
2023-01-29T00:47:29.486Z,1.4
2023-01-29T00:48:45.772Z,1.2
2023-01-29T00:50:02.055Z,1.3
2023-01-29T00:51:18.361Z,1.4
2023-01-29T00:52:34.655Z,1.1
2023-01-29T00:53:50.938Z,1.2
2023-01-29T00:55:07.251Z,1.2
2023-01-29T00:56:23.539Z,1.3
2023-01-29T00:57:39.824Z,1.3
2023-01-29T00:58:56.110Z,1.3
2023-01-29T01:00:12.404Z,1.4
2023-01-29T01:01:28.708Z,1.3
2023-01-29T01:02:44.015Z,1.2
2023-01-29T01:04:00.307Z,1.2
2023-01-29T01:05:16.604Z,1.3
2023-01-29T01:06:32.895Z,1.3
2023-01-29T01:07:49.191Z,1.4
2023-01-29T01:09:05.484Z,1.3
2023-01-29T01:10:21.784Z,1.6
2023-01-29T01:11:38.077Z,1.3
2023-01-29T01:12:54.362Z,1.3
2023-01-29T01:14:10.652Z,1.7
2023-01-29T01:15:26.948Z,1.3
2023-01-29T01:16:43.251Z,1.4
2023-01-29T01:17:59.534Z,1.1
2023-01-29T01:19:14.858Z,1.4
2023-01-29T01:20:31.145Z,1.4
2023-01-29T01:21:47.430Z,1.2
2023-01-29T01:23:03.726Z,1.4
2023-01-29T01:24:20.018Z,1.5
2023-01-29T01:25:36.326Z,1.4
2023-01-29T01:26:52.602Z,1.6
2023-01-29T01:28:08.906Z,1.8
2023-01-29T01:29:25.204Z,1.3
2023-01-29T01:30:41.489Z,1.5
2023-01-29T01:31:57.793Z,1.4
2023-01-29T01:33:14.081Z,1.7
2023-01-29T01:34:30.371Z,1.7
2023-01-29T01:35:45.692Z,1.5
2023-01-29T01:37:01.972Z,1.7
2023-01-29T01:38:18.281Z,1.5
2023-01-29T01:39:34.562Z,1.9
2023-01-29T01:40:50.864Z,1.8
2023-01-29T01:42:07.154Z,1.7
2023-01-29T01:43:23.439Z,1.8
2023-01-29T01:44:39.735Z,1.7
2023-01-29T01:45:56.031Z,1.7
2023-01-29T01:47:12.327Z,1.8
2023-01-29T01:48:28.625Z,1.9
2023-01-29T01:49:44.915Z,1.7
2023-01-29T01:51:01.205Z,1.8
2023-01-29T01:52:16.524Z,2.2
2023-01-29T01:53:32.823Z,2
2023-01-29T01:54:49.103Z,2.2
2023-01-29T01:56:05.395Z,2.1
2023-01-29T01:57:21.696Z,1.8
2023-01-29T01:58:37.990Z,2.1
2023-01-29T01:59:54.275Z,2.1
2023-01-29T02:01:10.573Z,1.9
2023-01-29T02:02:26.860Z,1.9
2023-01-29T02:03:43.155Z,2.1
2023-01-29T02:04:59.459Z,1.8
2023-01-29T02:06:15.747Z,2.1
2023-01-29T02:07:32.045Z,2.1
2023-01-29T02:08:47.356Z,2.1
2023-01-29T02:10:03.655Z,2.4
2023-01-29T02:11:19.941Z,2.1
2023-01-29T02:12:36.225Z,2
2023-01-29T02:13:52.535Z,2.4
2023-01-29T02:15:08.815Z,2
2023-01-29T02:16:25.109Z,2.2
2023-01-29T02:17:41.414Z,2.2
2023-01-29T02:18:57.700Z,2.4
2023-01-29T02:20:13.998Z,2.1
2023-01-29T02:21:30.301Z,2.1
2023-01-29T02:22:46.593Z,2.3
2023-01-29T02:24:02.890Z,2.4
2023-01-29T02:25:18.195Z,2.4
2023-01-29T02:26:34.493Z,2.5
2023-01-29T02:27:50.788Z,2.8
2023-01-29T02:29:07.078Z,2.6
2023-01-29T02:30:23.372Z,2.6
2023-01-29T02:31:39.662Z,2.6
2023-01-29T02:32:55.945Z,2.4
2023-01-29T02:34:12.246Z,2.5
2023-01-29T02:35:28.537Z,3.1
2023-01-29T02:36:44.840Z,2.7
2023-01-29T02:38:01.139Z,2.9
2023-01-29T02:39:17.417Z,2.7
2023-01-29T02:40:33.719Z,2.9
2023-01-29T02:41:49.033Z,2.8
2023-01-29T02:43:05.326Z,2.9
2023-01-29T02:44:21.617Z,2.8
2023-01-29T02:45:37.902Z,2.8
2023-01-29T02:46:54.207Z,3.1
2023-01-29T02:48:10.503Z,3.3
2023-01-29T02:49:26.794Z,3.3
2023-01-29T02:50:43.075Z,3.1
2023-01-29T02:51:59.389Z,3.4
2023-01-29T02:54:31.963Z,3
2023-01-29T02:55:48.259Z,3.3
2023-01-29T02:57:04.550Z,3.2
2023-01-29T02:58:19.865Z,3.3
2023-01-29T02:59:36.147Z,3.2
2023-01-29T03:00:52.451Z,3.5
2023-01-29T03:02:08.749Z,3.3
2023-01-29T03:03:25.035Z,3.1
2023-01-29T03:04:41.336Z,3.3
2023-01-29T03:05:57.629Z,3.1
2023-01-29T03:07:13.912Z,3.3
2023-01-29T03:08:30.216Z,3.7
2023-01-29T03:09:46.498Z,3.4
2023-01-29T03:11:02.809Z,3.9
2023-01-29T03:12:19.098Z,3.3
2023-01-29T03:13:35.389Z,3.1
2023-01-29T03:14:50.701Z,3.1
2023-01-29T03:16:07.000Z,3.5
2023-01-29T03:17:23.280Z,3.6
2023-01-29T03:18:39.571Z,3.8
2023-01-29T03:19:55.880Z,3.6
2023-01-29T03:21:12.166Z,3.4
2023-01-29T03:22:28.464Z,3.6
2023-01-29T03:23:44.743Z,3.5
2023-01-29T03:25:01.046Z,4
2023-01-29T03:26:17.341Z,3.9
2023-01-29T03:27:33.631Z,3.1
2023-01-29T03:28:49.925Z,3.8
2023-01-29T03:30:06.224Z,4
2023-01-29T03:31:21.521Z,3.5
2023-01-29T03:32:37.819Z,3.7
2023-01-29T03:33:54.116Z,4
2023-01-29T03:35:10.405Z,3.2
2023-01-29T03:36:26.703Z,4
2023-01-29T03:37:43.005Z,4.1
2023-01-29T03:38:59.302Z,3.4
2023-01-29T03:40:15.590Z,4.4
2023-01-29T03:41:31.888Z,3.7
2023-01-29T03:42:48.185Z,4
2023-01-29T03:44:04.469Z,3.8
2023-01-29T03:45:20.761Z,4.2
2023-01-29T03:46:37.053Z,3.9
2023-01-29T03:47:52.365Z,3.5
2023-01-29T03:49:08.651Z,3.7
2023-01-29T03:50:24.950Z,3.4
2023-01-29T03:51:41.247Z,3.6
2023-01-29T03:52:57.535Z,3.9
2023-01-29T03:54:13.844Z,3.8
2023-01-29T03:55:30.126Z,4
2023-01-29T03:56:46.419Z,3.8
2023-01-29T03:58:02.715Z,3.8
2023-01-29T03:59:19.018Z,3.7
2023-01-29T04:00:35.308Z,3.5
2023-01-29T04:01:51.600Z,3.6
2023-01-29T04:03:07.886Z,3.9
2023-01-29T04:04:23.211Z,4.2
2023-01-29T04:05:39.497Z,3.7
2023-01-29T04:06:55.793Z,3.7
2023-01-29T04:08:12.088Z,3.3
2023-01-29T04:09:28.374Z,3.5
2023-01-29T04:10:44.667Z,4
2023-01-29T04:12:00.966Z,4
2023-01-29T04:13:17.267Z,3.6
2023-01-29T04:14:33.550Z,4.3
2023-01-29T04:15:49.840Z,4.1
2023-01-29T04:17:06.145Z,3.7
2023-01-29T04:18:22.430Z,4
2023-01-29T04:19:38.737Z,4
2023-01-29T04:20:54.044Z,3.7
2023-01-29T04:22:10.331Z,3.8
2023-01-29T04:23:26.633Z,3.6
2023-01-29T04:24:42.914Z,3.5
2023-01-29T04:25:59.216Z,3.8
2023-01-29T04:27:15.510Z,3.7
2023-01-29T04:28:30.831Z,3.8
2023-01-29T04:29:47.112Z,3.4
2023-01-29T04:31:03.398Z,3.7
2023-01-29T04:32:19.703Z,4.1
2023-01-29T04:33:35.993Z,4.1
2023-01-29T04:34:52.296Z,3.2
2023-01-29T04:36:08.593Z,4.2
2023-01-29T04:37:24.881Z,3.5
2023-01-29T04:38:41.160Z,3.4
2023-01-29T04:39:57.461Z,3.7
2023-01-29T04:41:13.765Z,4.1
2023-01-29T04:42:30.044Z,3.8
2023-01-29T04:43:46.342Z,3.8
2023-01-29T04:45:01.647Z,3.8
2023-01-29T04:46:17.958Z,3.5
2023-01-29T04:47:34.249Z,3.3
2023-01-29T04:48:50.543Z,3.5
2023-01-29T04:50:06.833Z,3.7
2023-01-29T04:51:23.117Z,3.8
2023-01-29T04:52:39.409Z,3.6
2023-01-29T04:53:55.721Z,3.6
2023-01-29T04:55:12.014Z,3.5
2023-01-29T04:56:28.294Z,3.8
2023-01-29T04:57:44.602Z,3.8
2023-01-29T04:59:00.879Z,4
2023-01-29T05:00:17.171Z,3.3
2023-01-29T05:01:32.491Z,3.3
2023-01-29T05:02:48.792Z,3.6
2023-01-29T05:04:05.087Z,4.2
2023-01-29T05:05:21.368Z,3.4
2023-01-29T05:06:37.676Z,3.7
2023-01-29T05:07:53.957Z,3.4
2023-01-29T05:09:10.264Z,3.8
2023-01-29T05:10:26.557Z,3.7
2023-01-29T05:11:42.834Z,3.6
2023-01-29T05:12:59.129Z,3.5
2023-01-29T05:14:15.421Z,3.3
2023-01-29T05:15:31.720Z,3.7
2023-01-29T05:16:48.008Z,3.7
2023-01-29T05:18:03.334Z,3.9
2023-01-29T05:19:19.615Z,3.5
2023-01-29T05:20:35.912Z,3.8
2023-01-29T05:21:52.208Z,4
2023-01-29T05:23:08.492Z,3.3
2023-01-29T05:24:24.784Z,3.5
2023-01-29T05:25:41.095Z,3.9
2023-01-29T05:26:57.384Z,3.7
2023-01-29T05:28:13.667Z,3.7
2023-01-29T05:29:29.973Z,3.6
2023-01-29T05:30:46.271Z,3.5
2023-01-29T05:32:02.552Z,3.4
2023-01-29T05:33:18.858Z,3.6
2023-01-29T05:34:34.167Z,3.3
2023-01-29T05:35:50.464Z,3.1
2023-01-29T05:37:06.753Z,3.7
2023-01-29T05:38:23.043Z,3.5
2023-01-29T05:39:39.336Z,3.7
2023-01-29T05:40:55.630Z,3.2
2023-01-29T05:42:11.930Z,3.6
2023-01-29T05:43:28.209Z,3.4
2023-01-29T05:44:44.502Z,3.5
2023-01-29T05:46:00.797Z,3.6
2023-01-29T05:47:17.093Z,3.3
2023-01-29T05:48:33.389Z,3.8
2023-01-29T05:49:49.679Z,3.4
2023-01-29T05:51:05.002Z,3.8
2023-01-29T05:52:21.286Z,3.4
2023-01-29T05:53:37.591Z,3.2
2023-01-29T05:54:53.867Z,3.5
2023-01-29T05:56:10.170Z,3.2
2023-01-29T05:57:26.465Z,3.3
2023-01-29T05:58:42.750Z,3.9
2023-01-29T05:59:59.053Z,4
2023-01-29T06:01:15.349Z,3.1
2023-01-29T06:02:31.632Z,3.2
2023-01-29T06:03:47.937Z,3.6
2023-01-29T06:05:04.227Z,3.8
2023-01-29T06:06:20.532Z,3.3
2023-01-29T06:07:35.822Z,3.4
2023-01-29T06:08:52.116Z,3.3
2023-01-29T06:10:08.418Z,3.5
2023-01-29T06:11:24.705Z,3.4
2023-01-29T06:12:41.015Z,3.5
2023-01-29T06:13:57.304Z,3.7
2023-01-29T06:15:13.595Z,3.5
2023-01-29T06:16:29.878Z,4
2023-01-29T06:17:46.182Z,3.7
2023-01-29T06:19:02.420Z,3.7
2023-01-29T06:20:18.707Z,3.6
2023-01-29T06:21:35.017Z,3.3
2023-01-29T06:22:51.259Z,3.3
2023-01-29T06:24:06.506Z,3.7
2023-01-29T06:25:22.807Z,3.5
2023-01-29T06:26:39.095Z,3.7
2023-01-29T06:27:55.351Z,3.3
2023-01-29T06:29:11.596Z,3.3
2023-01-29T06:30:27.894Z,3.4
2023-01-29T06:31:44.147Z,3.5
2023-01-29T06:33:00.375Z,3.3
2023-01-29T06:34:16.608Z,3.3
2023-01-29T06:35:32.864Z,3.8
2023-01-29T06:36:49.107Z,3.4
2023-01-29T06:38:05.342Z,3.6
2023-01-29T06:39:21.574Z,3.5
2023-01-29T06:40:36.834Z,3.5
2023-01-29T06:41:53.065Z,3.3
2023-01-29T06:43:09.313Z,3.5
2023-01-29T06:44:25.548Z,3.7
2023-01-29T06:45:41.797Z,3.4
2023-01-29T06:46:58.041Z,3.7
2023-01-29T06:48:14.267Z,3.7
2023-01-29T06:49:30.513Z,3.6
2023-01-29T06:50:46.743Z,3.8
2023-01-29T06:52:03.002Z,3.9
2023-01-29T06:53:19.225Z,3.6
2023-01-29T06:54:35.474Z,3.3
2023-01-29T06:55:51.708Z,3.7
2023-01-29T06:57:06.963Z,3.6
2023-01-29T06:58:23.207Z,3.2
2023-01-29T06:59:39.454Z,3.6
2023-01-29T07:00:55.677Z,3.4
2023-01-29T07:02:11.918Z,3.8
2023-01-29T07:03:28.169Z,3.7
2023-01-29T07:04:44.414Z,3.2
2023-01-29T07:06:00.651Z,3.7
2023-01-29T07:07:16.895Z,3.9
2023-01-29T07:08:33.117Z,3.3
2023-01-29T07:09:49.362Z,3.9
2023-01-29T07:11:05.595Z,3.7
2023-01-29T07:12:21.843Z,4.3
2023-01-29T07:13:37.092Z,3.5
2023-01-29T07:14:53.333Z,4.1
2023-01-29T07:16:09.583Z,4.3
2023-01-29T07:17:25.826Z,3.8
2023-01-29T07:18:42.054Z,4.4
2023-01-29T07:19:58.298Z,3.8
2023-01-29T07:21:14.547Z,3.9
2023-01-29T07:22:30.778Z,3.5
2023-01-29T07:23:47.019Z,3.6
2023-01-29T07:25:03.255Z,3.5
2023-01-29T07:26:19.502Z,3.7
2023-01-29T07:27:35.746Z,3.8
2023-01-29T07:28:51.970Z,3.3
2023-01-29T07:30:07.235Z,4.2
2023-01-29T07:31:23.466Z,3.9
2023-01-29T07:32:39.702Z,4
2023-01-29T07:33:55.961Z,3.6
2023-01-29T07:35:12.186Z,3.4
2023-01-29T07:36:28.441Z,3.7
2023-01-29T07:37:44.680Z,3.9
2023-01-29T07:39:00.908Z,4.4
2023-01-29T07:40:17.147Z,3.7
2023-01-29T07:41:33.380Z,3.5
2023-01-29T07:42:49.620Z,3.9
2023-01-29T07:44:05.866Z,4.2
2023-01-29T07:45:22.103Z,3.9
2023-01-29T07:46:37.368Z,4.1
2023-01-29T07:47:53.595Z,4.5
2023-01-29T07:49:09.841Z,3.9
2023-01-29T07:50:26.094Z,4.2
2023-01-29T07:51:42.328Z,4
2023-01-29T07:52:58.557Z,4.2
2023-01-29T07:54:14.804Z,4.3
2023-01-29T07:55:31.033Z,4.4
2023-01-29T07:56:47.288Z,4.6
2023-01-29T07:58:03.515Z,4.2
2023-01-29T07:59:19.772Z,4.1
2023-01-29T08:00:36.007Z,4.2
2023-01-29T08:01:52.238Z,4.6
2023-01-29T08:03:07.489Z,3.9
2023-01-29T08:04:23.736Z,4.1
2023-01-29T08:05:39.987Z,4.3
2023-01-29T08:06:56.218Z,3.8
2023-01-29T08:08:12.448Z,4.1
2023-01-29T08:09:28.687Z,4.2
2023-01-29T08:10:44.945Z,4.1
2023-01-29T08:12:01.169Z,4.2
2023-01-29T08:13:17.407Z,4.1
2023-01-29T08:14:33.644Z,3.8
2023-01-29T08:15:49.895Z,4.5
2023-01-29T08:17:06.129Z,4.3
2023-01-29T08:18:22.363Z,3.9
2023-01-29T08:19:37.626Z,4.6
2023-01-29T08:20:53.878Z,4.2
2023-01-29T08:22:10.107Z,4.7
2023-01-29T08:23:26.341Z,4.4
2023-01-29T08:24:42.579Z,4.2
2023-01-29T08:25:58.819Z,4
2023-01-29T08:27:15.062Z,3.9
2023-01-29T08:28:31.305Z,3.9
2023-01-29T08:29:47.547Z,4.4
2023-01-29T08:31:03.784Z,4.1
2023-01-29T08:32:20.024Z,3.9
2023-01-29T08:33:36.259Z,4.3
2023-01-29T08:34:52.503Z,4.2
2023-01-29T08:36:07.767Z,4.2
2023-01-29T08:37:24.000Z,4.9
2023-01-29T08:38:40.248Z,3.8
2023-01-29T08:39:56.481Z,4.1
2023-01-29T08:41:12.721Z,3.9
2023-01-29T08:42:28.964Z,4.4
2023-01-29T08:43:44.213Z,4.7
2023-01-29T08:45:00.458Z,4.7
2023-01-29T08:46:16.697Z,4.3
2023-01-29T08:47:32.948Z,4.2
2023-01-29T08:48:49.187Z,4.1
2023-01-29T08:50:05.419Z,4.3
2023-01-29T08:51:21.660Z,4.6
2023-01-29T08:52:37.892Z,4.3
2023-01-29T08:53:54.137Z,3.9
2023-01-29T08:55:10.379Z,4.3
2023-01-29T08:56:26.610Z,4
2023-01-29T08:57:42.845Z,4.4
2023-01-29T08:58:59.102Z,4.4
2023-01-29T09:00:14.353Z,4.2
2023-01-29T09:01:30.590Z,4.1
2023-01-29T09:02:46.838Z,4.5
2023-01-29T09:04:03.072Z,4.8
2023-01-29T09:05:19.305Z,4.4
2023-01-29T09:06:35.546Z,4.2
2023-01-29T09:07:51.780Z,4.7
2023-01-29T09:09:08.025Z,4.1
2023-01-29T09:10:24.277Z,4.3
2023-01-29T09:11:40.504Z,3.7
2023-01-29T09:12:56.757Z,4.3
2023-01-29T09:14:12.985Z,4
2023-01-29T09:16:45.468Z,5
2023-01-29T09:18:00.723Z,4.1
2023-01-29T09:19:16.961Z,4
2023-01-29T09:20:33.205Z,4.4
2023-01-29T09:21:49.437Z,4.1
2023-01-29T09:23:05.688Z,4.4
2023-01-29T09:24:21.911Z,3.7
2023-01-29T09:25:38.152Z,4.6
2023-01-29T09:26:54.408Z,4.5
2023-01-29T09:28:10.645Z,4.6
2023-01-29T09:29:26.879Z,4.5
2023-01-29T09:30:43.109Z,4.7
2023-01-29T09:31:59.357Z,4.3
2023-01-29T09:33:15.593Z,4.3
2023-01-29T09:34:30.863Z,4.5
2023-01-29T09:35:47.089Z,4.7
2023-01-29T09:37:03.335Z,4.3
2023-01-29T09:38:19.574Z,4.6
2023-01-29T09:39:35.816Z,4.7
2023-01-29T09:40:52.053Z,4.1
2023-01-29T09:42:08.296Z,4.6
2023-01-29T09:43:24.534Z,5
2023-01-29T09:44:40.763Z,4.7
2023-01-29T09:45:57.009Z,4.7
2023-01-29T09:47:13.256Z,4.5
2023-01-29T09:48:29.494Z,5.2
2023-01-29T09:49:45.728Z,4.7
2023-01-29T09:51:00.982Z,4.5
2023-01-29T09:52:17.220Z,4.6
2023-01-29T09:53:33.455Z,4.9
2023-01-29T09:54:49.701Z,4.6
2023-01-29T09:56:05.940Z,4.7
2023-01-29T09:57:22.192Z,5.3
2023-01-29T09:58:38.431Z,4.6
2023-01-29T09:59:54.657Z,4.4
2023-01-29T10:01:10.896Z,4.6
2023-01-29T10:02:27.133Z,4.7
2023-01-29T10:03:43.381Z,4.7
2023-01-29T10:04:59.613Z,4.5
2023-01-29T10:06:15.872Z,4.6
2023-01-29T10:07:31.106Z,5
2023-01-29T10:08:47.352Z,5
2023-01-29T10:10:03.604Z,4.7
2023-01-29T10:11:19.834Z,5.3
2023-01-29T10:12:36.069Z,5.1
2023-01-29T10:13:52.325Z,4.8
2023-01-29T10:15:08.545Z,4.8
2023-01-29T10:16:24.787Z,5.1
2023-01-29T10:17:41.032Z,4.8
2023-01-29T10:18:57.283Z,5.8
2023-01-29T10:20:13.502Z,4.7
2023-01-29T10:21:29.759Z,5.7
2023-01-29T10:22:45.992Z,6
2023-01-29T10:24:01.254Z,5.1
2023-01-29T10:25:17.481Z,4.7
2023-01-29T10:26:33.733Z,6.5
2023-01-29T10:27:49.972Z,5.9
2023-01-29T10:29:06.217Z,6.2
2023-01-29T10:30:22.449Z,4.6
2023-01-29T10:31:38.686Z,5.2
2023-01-29T10:32:54.935Z,6.2
2023-01-29T10:34:11.169Z,4.8
2023-01-29T10:35:27.408Z,4.4
2023-01-29T10:36:43.655Z,5.4
2023-01-29T10:37:59.876Z,5.5
2023-01-29T10:39:16.121Z,5.4
2023-01-29T10:40:31.373Z,5
2023-01-29T10:41:47.617Z,5
2023-01-29T10:43:03.859Z,5.2
2023-01-29T10:44:20.101Z,5.7
2023-01-29T10:45:36.331Z,5
2023-01-29T10:46:52.581Z,5.5
2023-01-29T10:48:08.818Z,5
2023-01-29T10:49:25.053Z,5.6
2023-01-29T10:50:41.292Z,5.5
2023-01-29T10:51:57.544Z,5.3
2023-01-29T10:53:13.766Z,5.5
2023-01-29T10:54:30.023Z,4.7
2023-01-29T10:55:46.252Z,4.5
2023-01-29T10:57:01.500Z,4.9
2023-01-29T10:58:17.753Z,4.7
2023-01-29T10:59:33.991Z,4.9
2023-01-29T11:00:50.222Z,4.8
2023-01-29T11:02:06.464Z,4.6
2023-01-29T11:03:22.706Z,4.9
2023-01-29T11:04:38.954Z,5.2
2023-01-29T11:05:55.193Z,4.9
2023-01-29T11:07:11.427Z,4.8
2023-01-29T11:08:27.661Z,5.1
2023-01-29T11:09:43.915Z,5
2023-01-29T11:11:00.150Z,4.7
2023-01-29T11:12:16.386Z,7
2023-01-29T11:13:31.644Z,6.4
2023-01-29T11:14:47.883Z,6
2023-01-29T11:16:04.117Z,6.1
2023-01-29T11:17:20.351Z,6.7
2023-01-29T11:18:36.604Z,7.6
2023-01-29T11:19:52.829Z,5.6
2023-01-29T11:21:09.072Z,5.3
2023-01-29T11:22:25.321Z,5.2
2023-01-29T11:23:41.558Z,5.2
2023-01-29T11:24:57.793Z,5.6
2023-01-29T11:26:14.028Z,5.3
2023-01-29T11:27:30.275Z,4.7
2023-01-29T11:28:46.516Z,5
2023-01-29T11:30:01.768Z,5
2023-01-29T11:31:18.016Z,5.8
2023-01-29T11:32:34.251Z,5.4
2023-01-29T11:33:50.485Z,4.9
2023-01-29T11:35:06.726Z,4.6
2023-01-29T11:36:22.975Z,4.7
2023-01-29T11:37:39.210Z,4.6
2023-01-29T11:38:55.437Z,5
2023-01-29T11:40:11.695Z,5.1
2023-01-29T11:41:27.931Z,5
2023-01-29T11:42:44.157Z,5
2023-01-29T11:44:00.408Z,5.1
2023-01-29T11:45:16.650Z,5
2023-01-29T11:46:31.889Z,5.2
2023-01-29T11:47:48.149Z,4.9
2023-01-29T11:49:04.374Z,4.6
2023-01-29T11:50:20.626Z,5.1
2023-01-29T11:51:36.855Z,4.5
2023-01-29T11:52:53.102Z,4.6
2023-01-29T11:54:09.331Z,4.8
2023-01-29T11:55:25.581Z,4.6
2023-01-29T11:57:58.045Z,5
2023-01-29T11:59:14.287Z,5.1
2023-01-29T12:00:30.541Z,4.8
2023-01-29T12:01:46.762Z,4.3
2023-01-29T12:03:02.024Z,4.4
2023-01-29T12:04:18.261Z,4.4
2023-01-29T12:05:34.498Z,4.9
2023-01-29T12:06:50.755Z,4
2023-01-29T12:08:06.980Z,4.8
2023-01-29T12:09:23.215Z,4.3
2023-01-29T12:10:39.467Z,5.5
2023-01-29T12:11:55.701Z,4.7
2023-01-29T12:13:11.949Z,4.5
2023-01-29T12:14:28.193Z,4.4
2023-01-29T12:15:44.421Z,4
2023-01-29T12:17:00.657Z,4.3
2023-01-29T12:18:16.900Z,4.8
2023-01-29T12:19:32.145Z,3.9
2023-01-29T12:20:48.390Z,4
2023-01-29T12:22:04.630Z,4
2023-01-29T12:23:20.876Z,4.5
2023-01-29T12:24:37.116Z,4.1
2023-01-29T12:25:53.000Z,4.6
2023-01-29T12:27:09.583Z,4.5
2023-01-29T12:28:25.831Z,4.6
2023-01-29T12:29:42.068Z,6
2023-01-29T12:30:58.299Z,5
2023-01-29T12:32:14.551Z,4.5
2023-01-29T12:33:30.780Z,5.9
2023-01-29T12:34:47.018Z,5.1
2023-01-29T12:36:02.279Z,4.4
2023-01-29T12:37:18.527Z,4.3
2023-01-29T12:38:34.756Z,4.2
2023-01-29T12:39:51.004Z,4.4
2023-01-29T12:41:07.242Z,4.3
2023-01-29T12:42:23.486Z,4.2
2023-01-29T12:43:39.726Z,4.8
2023-01-29T12:44:55.962Z,3.9
2023-01-29T12:46:12.201Z,3.9
2023-01-29T12:47:28.434Z,4.4
2023-01-29T12:48:44.683Z,4.2
2023-01-29T12:50:00.907Z,3.8
2023-01-29T12:51:17.160Z,4.2
2023-01-29T12:52:32.414Z,4.6
2023-01-29T12:53:48.653Z,3.5
2023-01-29T12:55:04.891Z,3.7
2023-01-29T12:56:21.132Z,3.8
2023-01-29T12:57:37.366Z,4.2
2023-01-29T12:58:52.634Z,3.7
2023-01-29T13:00:08.870Z,3.9
2023-01-29T13:01:25.000Z,3.8
2023-01-29T13:02:41.350Z,4
2023-01-29T13:03:57.590Z,4.9
2023-01-29T13:05:13.834Z,3.6
2023-01-29T13:06:30.071Z,4.2
2023-01-29T13:07:46.302Z,4.2
2023-01-29T13:09:02.535Z,4.2
2023-01-29T13:10:18.792Z,3.9
2023-01-29T13:11:35.033Z,3.8
2023-01-29T13:12:51.273Z,4.4
2023-01-29T13:14:07.493Z,3.7
2023-01-29T13:15:22.751Z,3.1
2023-01-29T13:16:38.988Z,4.1
2023-01-29T13:17:55.234Z,3.7
2023-01-29T13:19:11.481Z,3.9
2023-01-29T13:20:27.717Z,4
2023-01-29T13:21:43.962Z,3.8
2023-01-29T13:23:00.204Z,3.6
2023-01-29T13:24:16.424Z,3.7
2023-01-29T13:25:32.677Z,3.1
2023-01-29T13:26:48.915Z,4
2023-01-29T13:28:05.163Z,4.1
2023-01-29T13:29:21.400Z,4.1
2023-01-29T13:30:37.640Z,4.1
2023-01-29T13:31:52.881Z,4.7
2023-01-29T13:33:09.126Z,6
2023-01-29T13:34:25.361Z,4.4
2023-01-29T13:35:41.615Z,4.8
2023-01-29T13:36:57.851Z,4.6
2023-01-29T13:38:14.090Z,3.8
2023-01-29T13:39:30.320Z,3.6
2023-01-29T13:40:46.555Z,3.8
2023-01-29T13:42:02.794Z,3.8
2023-01-29T13:43:19.032Z,3.6
2023-01-29T13:44:35.277Z,3.5
2023-01-29T13:45:51.522Z,3.8
2023-01-29T13:47:07.751Z,3.6
2023-01-29T13:48:23.014Z,3.7
2023-01-29T13:49:39.260Z,3.9
2023-01-29T13:50:55.501Z,3.7
2023-01-29T13:52:11.733Z,3.2
2023-01-29T13:53:27.965Z,3.5
2023-01-29T13:54:44.216Z,3.6
2023-01-29T13:56:00.447Z,4
2023-01-29T13:57:16.691Z,4.1
2023-01-29T13:58:32.927Z,7.1
2023-01-29T13:59:49.169Z,3.5
2023-01-29T14:01:05.418Z,3.5
2023-01-29T14:02:21.647Z,3.6
2023-01-29T14:03:37.884Z,3.9
2023-01-29T14:04:53.133Z,3.8
2023-01-29T14:06:09.392Z,3.4
2023-01-29T14:07:25.626Z,3.5
2023-01-29T14:08:41.865Z,3.5
2023-01-29T14:09:58.100Z,3
2023-01-29T14:11:14.336Z,3
2023-01-29T14:12:30.575Z,3.3
2023-01-29T14:13:46.809Z,3.3
2023-01-29T14:15:03.053Z,3.4
2023-01-29T14:16:19.290Z,3.5
2023-01-29T14:17:35.537Z,3.3
2023-01-29T14:18:51.787Z,3.5
2023-01-29T14:20:08.021Z,3.2
2023-01-29T14:21:23.275Z,2.8
2023-01-29T14:22:39.518Z,3
2023-01-29T14:23:55.751Z,3.2
2023-01-29T14:25:11.986Z,3.1
2023-01-29T14:26:28.219Z,3.1
2023-01-29T14:27:44.461Z,3
2023-01-29T14:29:00.704Z,2.6
2023-01-29T14:30:16.956Z,2.9
2023-01-29T14:31:33.192Z,3.2
2023-01-29T14:32:49.432Z,3.1
2023-01-29T14:34:05.656Z,3.1
2023-01-29T14:35:21.912Z,3.1
2023-01-29T14:36:38.144Z,2.9
2023-01-29T14:37:53.394Z,3
2023-01-29T14:39:09.630Z,2.9
2023-01-29T14:40:25.886Z,2.9
2023-01-29T14:41:42.116Z,3.1
2023-01-29T14:42:58.364Z,3.2
2023-01-29T14:44:14.592Z,4.9
2023-01-29T14:45:30.846Z,7.4
2023-01-29T14:46:47.077Z,4
2023-01-29T14:48:03.321Z,3.5
2023-01-29T14:49:19.560Z,4.2
2023-01-29T14:50:35.801Z,4.1
2023-01-29T14:51:52.025Z,3.5
2023-01-29T14:53:08.279Z,3.5
2023-01-29T14:54:23.523Z,3.2
2023-01-29T14:55:39.768Z,3.3
2023-01-29T14:56:56.009Z,3.7
2023-01-29T14:58:12.239Z,3
2023-01-29T14:59:28.478Z,3.1
2023-01-29T15:00:44.729Z,3.6
2023-01-29T15:02:00.968Z,3.6
2023-01-29T15:03:17.210Z,3.1
2023-01-29T15:04:33.445Z,3.3
2023-01-29T15:05:49.680Z,3.6
2023-01-29T15:07:05.928Z,3.5
2023-01-29T15:08:22.159Z,3.4
2023-01-29T15:09:38.401Z,3.2
2023-01-29T15:10:53.661Z,3.2
2023-01-29T15:12:09.904Z,2.7
2023-01-29T15:13:26.141Z,3.1
2023-01-29T15:14:42.364Z,3.1
2023-01-29T15:15:58.614Z,3.6
2023-01-29T15:17:14.855Z,3.1
2023-01-29T15:18:31.090Z,3.2
2023-01-29T15:19:47.341Z,3.1
2023-01-29T15:21:03.563Z,2.7
2023-01-29T15:22:19.810Z,3.2
2023-01-29T15:23:36.051Z,3.1
2023-01-29T15:24:52.279Z,2.9
2023-01-29T15:26:08.521Z,3.4
2023-01-29T15:27:23.786Z,3.2
2023-01-29T15:28:40.025Z,3
2023-01-29T15:29:56.256Z,2.9
2023-01-29T15:31:12.503Z,3.2
2023-01-29T15:32:28.745Z,3.5
2023-01-29T15:33:44.976Z,3.2
2023-01-29T15:35:01.221Z,3.1
2023-01-29T15:36:17.461Z,3.1
2023-01-29T15:37:33.707Z,2.8
2023-01-29T15:38:49.933Z,3
2023-01-29T15:40:06.171Z,3
2023-01-29T15:41:22.418Z,3.2
2023-01-29T15:42:38.653Z,3.3
2023-01-29T15:43:53.903Z,3.1
2023-01-29T15:45:10.151Z,3.3
2023-01-29T15:46:26.393Z,3.1
2023-01-29T15:47:42.636Z,2.9
2023-01-29T15:48:58.865Z,3.1
2023-01-29T15:50:15.109Z,3.1
2023-01-29T15:51:31.350Z,3.1
2023-01-29T15:52:47.589Z,3
2023-01-29T15:54:03.820Z,3.2
2023-01-29T15:55:20.072Z,3.2
2023-01-29T15:56:36.300Z,3.2
2023-01-29T15:57:52.545Z,3.1
2023-01-29T15:59:08.777Z,3
2023-01-29T16:00:24.041Z,3.3
2023-01-29T16:01:40.282Z,3.5
2023-01-29T16:02:56.529Z,3
2023-01-29T16:04:12.758Z,3
2023-01-29T16:05:28.997Z,3.2
2023-01-29T16:06:45.237Z,3.5
2023-01-29T16:08:01.471Z,3.1
2023-01-29T16:09:17.716Z,4.7
2023-01-29T16:10:33.953Z,4
2023-01-29T16:11:50.186Z,3.9
2023-01-29T16:13:06.429Z,3.7
2023-01-29T16:14:22.668Z,3.4
2023-01-29T16:15:38.909Z,3.4
2023-01-29T16:16:54.216Z,3.8
2023-01-29T16:18:10.512Z,3.4
2023-01-29T16:19:26.745Z,3.8
2023-01-29T16:20:42.999Z,3.6
2023-01-29T16:21:59.231Z,5.3
2023-01-29T16:23:15.527Z,4.6
2023-01-29T16:24:31.820Z,5
2023-01-29T16:25:48.099Z,4.1
2023-01-29T16:27:04.403Z,4.7
2023-01-29T16:28:20.687Z,4.7
2023-01-29T16:29:36.980Z,4.3
2023-01-29T16:30:53.282Z,5.4
2023-01-29T16:32:09.574Z,5.3
2023-01-29T16:33:24.878Z,3.7
2023-01-29T16:34:41.187Z,4.3
2023-01-29T16:35:57.471Z,4.1
2023-01-29T16:37:13.759Z,4.2
2023-01-29T16:38:30.067Z,3.7
2023-01-29T16:39:46.354Z,4.1
2023-01-29T16:41:02.645Z,4
2023-01-29T16:42:18.945Z,3.9
2023-01-29T16:43:35.223Z,3.5
2023-01-29T16:44:51.536Z,3.5
2023-01-29T16:46:07.812Z,4
2023-01-29T16:47:24.107Z,3.9
2023-01-29T16:48:40.409Z,3.9
2023-01-29T16:49:55.715Z,3.9
2023-01-29T16:51:12.011Z,3
2023-01-29T16:52:28.313Z,4
2023-01-29T16:53:44.590Z,3.3
2023-01-29T16:55:00.897Z,3.6
2023-01-29T16:56:17.186Z,3.3
2023-01-29T16:57:33.473Z,3.3
2023-01-29T16:58:49.780Z,4
2023-01-29T17:00:06.067Z,3.7
2023-01-29T17:01:22.359Z,3.9
2023-01-29T17:02:38.644Z,4
2023-01-29T17:03:54.951Z,3.5
2023-01-29T17:05:11.234Z,3.7
2023-01-29T17:06:26.548Z,3.6
2023-01-29T17:07:42.850Z,3.9
2023-01-29T17:08:59.143Z,3.6
2023-01-29T17:10:15.422Z,4.2
2023-01-29T17:11:31.710Z,4.2
2023-01-29T17:12:48.004Z,4.8
2023-01-29T17:14:03.321Z,3.8
2023-01-29T17:15:19.620Z,3.4
2023-01-29T17:16:35.919Z,3.7
2023-01-29T17:17:52.199Z,4.3
2023-01-29T17:19:08.509Z,4.3
2023-01-29T17:20:24.805Z,4
2023-01-29T17:21:41.083Z,3.8
2023-01-29T17:22:57.388Z,4
2023-01-29T17:24:13.682Z,3.9
2023-01-29T17:25:29.967Z,3.7
2023-01-29T17:26:46.267Z,3.9
2023-01-29T17:28:02.549Z,3.6
2023-01-29T17:29:18.857Z,4
2023-01-29T17:30:34.150Z,4.5
2023-01-29T17:31:50.445Z,3.4
2023-01-29T17:33:06.742Z,3.7
2023-01-29T17:34:23.038Z,3.5
2023-01-29T17:35:39.343Z,3.7
2023-01-29T17:36:55.626Z,3.7
2023-01-29T17:38:11.926Z,4.1
2023-01-29T17:39:28.220Z,3.6